Time;durP1;ratioP1;P1;durP2;ratioP2;P2;SDS_P1;SDS_P2;PMS_P1;PMS_P2;Temp;Humidity;BMP_temperature;BMP_pressure;BME280_temperature;BME280_humidity;BME280_pressure;Samples;Min_cycle;Max_cycle;Signal;HPM_P1;HPM_P2
2023/02/03 00:00:10;;;;;;;;;;;7.10;99.90;;;;;;5014270;28;19909;-68
2023/02/03 00:02:35;;;;;;;;;;;7.20;99.90;;;;;;4996804;28;20053;-68
2023/02/03 00:05:01;;;;;;;;;;;7.20;99.90;;;;;;5012982;28;19945;-68
2023/02/03 00:07:27;;;;;;;;;;;7.20;99.90;;;;;;5012966;28;19960;-68
2023/02/03 00:09:54;;;;;;;;;;;7.30;99.90;;;;;;5029849;28;19921;-71
2023/02/03 00:12:19;;;;;;;;;;;7.20;99.90;;;;;;5034019;28;19913;-68
2023/02/03 00:14:45;;;;;;;;;;;7.10;99.90;;;;;;5034100;28;19916;-68
2023/02/03 00:17:10;;;;;;;;;;;7.10;99.90;;;;;;5034251;28;19910;-67
2023/02/03 00:19:36;;;;;;;;;;;7.10;99.90;;;;;;5033594;28;19945;-67
2023/02/03 00:22:01;;;;;;;;;;;7.20;99.90;;;;;;5033858;28;19913;-67
2023/02/03 00:24:27;;;;;;;;;;;7.20;99.90;;;;;;5032470;28;20269;-68
2023/02/03 00:26:52;;;;;;;;;;;7.20;99.90;;;;;;5034914;28;19919;-69
2023/02/03 00:29:20;;;;;;;;;;;7.20;99.90;;;;;;5036142;28;19932;-68
2023/02/03 00:31:45;;;;;;;;;;;7.20;99.90;;;;;;5034073;28;20366;-69
2023/02/03 00:34:11;;;;;;;;;;;7.20;99.90;;;;;;5033643;28;19940;-69
2023/02/03 00:36:36;;;;;;;;;;;7.20;99.90;;;;;;5035706;28;19916;-71
2023/02/03 00:39:02;;;;;;;;;;;7.10;99.90;;;;;;5026695;28;20362;-70
2023/02/03 00:41:29;;;;;;;;;;;7.20;99.90;;;;;;5015542;28;19960;-70
2023/02/03 00:43:54;;;;;;;;;;;7.30;99.90;;;;;;5014632;28;19910;-71
2023/02/03 00:46:20;;;;;;;;;;;7.30;99.90;;;;;;5014038;28;20420;-70
2023/02/03 00:48:45;;;;;;;;;;;7.40;99.90;;;;;;5013616;28;20389;-69
2023/02/03 00:51:11;;;;;;;;;;;7.40;99.90;;;;;;5012432;28;19909;-69
2023/02/03 00:53:36;;;;;;;;;;;7.40;99.90;;;;;;5014297;28;19963;-70
2023/02/03 00:56:02;;;;;;;;;;;7.50;99.90;;;;;;5014169;28;20278;-70
2023/02/03 00:58:27;;;;;;;;;;;7.40;99.90;;;;;;5014227;28;19913;-70
2023/02/03 01:00:53;;;;;;;;;;;7.30;99.90;;;;;;5000436;28;19909;-70
2023/02/03 01:03:19;;;;;;;;;;;7.30;99.90;;;;;;5024131;28;19920;-69
2023/02/03 01:05:44;;;;;;;;;;;7.20;99.90;;;;;;5018232;28;20000;-67
2023/02/03 01:08:10;;;;;;;;;;;7.30;99.90;;;;;;5017630;28;19921;-67
2023/02/03 01:10:36;;;;;;;;;;;7.20;99.90;;;;;;5017488;28;19964;-67
2023/02/03 01:13:02;;;;;;;;;;;7.20;99.90;;;;;;5018721;28;20000;-67
2023/02/03 01:15:27;;;;;;;;;;;7.20;99.90;;;;;;5000116;28;19956;-67
2023/02/03 01:17:53;;;;;;;;;;;7.20;99.90;;;;;;5017411;28;19939;-67
2023/02/03 01:20:20;;;;;;;;;;;7.30;99.90;;;;;;5017916;28;19914;-68
2023/02/03 01:22:45;;;;;;;;;;;7.40;99.90;;;;;;5021427;28;19909;-68
2023/02/03 01:25:11;;;;;;;;;;;7.30;99.90;;;;;;5021507;28;20377;-68
2023/02/03 01:27:36;;;;;;;;;;;7.40;99.90;;;;;;5027152;28;19913;-66
2023/02/03 01:30:02;;;;;;;;;;;7.50;99.90;;;;;;5022174;28;19953;-67
2023/02/03 01:32:27;;;;;;;;;;;7.50;99.90;;;;;;5017209;28;20315;-69
2023/02/03 01:34:53;;;;;;;;;;;7.40;99.90;;;;;;5018127;28;20385;-69
2023/02/03 01:37:18;;;;;;;;;;;7.60;99.90;;;;;;5018863;28;19914;-69
2023/02/03 01:39:44;;;;;;;;;;;7.50;99.90;;;;;;4999797;28;19910;-69
2023/02/03 01:42:13;;;;;;;;;;;7.50;99.90;;;;;;5018713;28;20281;-69
2023/02/03 01:44:38;;;;;;;;;;;7.40;99.90;;;;;;5016786;28;19918;-69
2023/02/03 01:47:13;;;;;;;;;;;7.50;99.90;;;;;;4999153;28;19968;-69
2023/02/03 01:49:41;;;;;;;;;;;7.50;99.90;;;;;;5016574;28;19913;-69
2023/02/03 01:52:06;;;;;;;;;;;7.60;99.90;;;;;;5016608;28;20436;-70
2023/02/03 01:54:36;;;;;;;;;;;7.70;99.90;;;;;;5017793;28;19910;-69
2023/02/03 01:57:09;;;;;;;;;;;7.50;99.90;;;;;;5017884;28;20063;-69
2023/02/03 01:59:34;;;;;;;;;;;7.40;99.90;;;;;;5016991;28;20000;-69
2023/02/03 02:02:01;;;;;;;;;;;7.30;99.90;;;;;;5016710;28;19945;-67
2023/02/03 02:04:31;;;;;;;;;;;7.20;99.90;;;;;;4998697;28;19910;-67
2023/02/03 02:06:57;;;;;;;;;;;7.10;99.90;;;;;;4998945;28;20295;-67
2023/02/03 02:09:23;;;;;;;;;;;7.10;99.90;;;;;;5017550;28;19932;-68
2023/02/03 02:11:48;;;;;;;;;;;7.10;99.90;;;;;;4998703;28;19924;-67
2023/02/03 02:14:14;;;;;;;;;;;7.10;99.90;;;;;;5016376;28;19992;-67
2023/02/03 02:16:54;;;;;;;;;;;7.20;99.90;;;;;;4998665;28;19910;-67
2023/02/03 02:19:38;;;;;;;;;;;7.20;99.90;;;;;;5015995;28;20008;-68
2023/02/03 02:22:13;;;;;;;;;;;7.20;99.90;;;;;;5017443;28;20401;-68
2023/02/03 02:25:01;;;;;;;;;;;7.20;99.90;;;;;;5017281;28;20084;-68
2023/02/03 02:27:30;;;;;;;;;;;7.30;99.90;;;;;;5016400;28;19920;-68
2023/02/03 02:30:14;;;;;;;;;;;7.30;99.90;;;;;;5016078;28;19917;-68
2023/02/03 02:32:48;;;;;;;;;;;7.40;99.90;;;;;;4998214;28;20377;-68
2023/02/03 02:35:18;;;;;;;;;;;7.40;99.90;;;;;;5015703;28;19916;-68
2023/02/03 02:37:56;;;;;;;;;;;7.50;99.90;;;;;;5014603;28;19917;-68
2023/02/03 02:40:22;;;;;;;;;;;7.40;99.90;;;;;;5016331;28;20260;-68
2023/02/03 02:42:54;;;;;;;;;;;7.30;99.90;;;;;;4998750;28;19910;-68
2023/02/03 02:45:25;;;;;;;;;;;7.30;99.90;;;;;;5019490;28;19909;-67
2023/02/03 02:47:53;;;;;;;;;;;7.30;99.90;;;;;;5018228;28;19914;-68
2023/02/03 02:50:21;;;;;;;;;;;7.30;99.90;;;;;;5017037;28;19971;-67
2023/02/03 02:52:48;;;;;;;;;;;7.30;99.90;;;;;;5016476;28;19910;-67
2023/02/03 02:55:17;;;;;;;;;;;7.40;99.90;;;;;;5015507;28;20333;-67
2023/02/03 02:57:43;;;;;;;;;;;7.40;99.90;;;;;;5015521;28;19909;-67
2023/02/03 03:00:09;;;;;;;;;;;7.30;99.90;;;;;;5015847;28;20290;-67
2023/02/03 03:02:35;;;;;;;;;;;7.30;99.90;;;;;;5014896;28;19964;-67
2023/02/03 03:05:03;;;;;;;;;;;7.30;99.90;;;;;;5015427;28;20008;-67
2023/02/03 03:07:31;;;;;;;;;;;7.30;99.90;;;;;;5015241;28;20388;-67
2023/02/03 03:09:58;;;;;;;;;;;7.40;99.90;;;;;;5016074;28;19917;-68
2023/02/03 03:12:25;;;;;;;;;;;7.30;99.90;;;;;;5015278;28;19921;-68
2023/02/03 03:14:58;;;;;;;;;;;7.40;99.90;;;;;;5013818;28;19925;-67
2023/02/03 03:17:25;;;;;;;;;;;7.40;99.90;;;;;;5013883;28;19973;-67
2023/02/03 03:19:54;;;;;;;;;;;7.80;99.90;;;;;;5014643;28;20365;-67
2023/02/03 03:22:23;;;;;;;;;;;7.40;99.90;;;;;;5014319;28;20004;-67
2023/02/03 03:24:54;;;;;;;;;;;7.40;99.90;;;;;;4998616;28;19921;-68
2023/02/03 03:27:23;;;;;;;;;;;7.40;99.90;;;;;;5014636;28;20289;-67
2023/02/03 03:29:55;;;;;;;;;;;7.40;99.90;;;;;;5013378;28;20401;-67
2023/02/03 03:32:21;;;;;;;;;;;7.40;99.90;;;;;;5014791;28;19917;-67
2023/02/03 03:34:46;;;;;;;;;;;7.30;99.90;;;;;;5015577;28;19909;-67
2023/02/03 03:37:17;;;;;;;;;;;7.30;99.90;;;;;;5016227;28;19916;-67
2023/02/03 03:39:48;;;;;;;;;;;7.40;99.90;;;;;;5014771;28;19910;-68
2023/02/03 03:42:22;;;;;;;;;;;7.40;99.90;;;;;;5013438;28;19913;-68
2023/02/03 03:44:55;;;;;;;;;;;7.40;99.90;;;;;;5014893;28;20012;-68
2023/02/03 03:47:28;;;;;;;;;;;7.40;99.90;;;;;;5014464;28;20370;-68
2023/02/03 03:49:54;;;;;;;;;;;7.30;99.90;;;;;;5014371;28;19960;-68
2023/02/03 03:52:22;;;;;;;;;;;7.40;99.90;;;;;;5014458;28;19917;-68
2023/02/03 03:54:48;;;;;;;;;;;7.30;99.90;;;;;;5013042;28;20000;-67
2023/02/03 03:57:17;;;;;;;;;;;7.30;99.90;;;;;;5014723;28;20000;-68
2023/02/03 03:59:44;;;;;;;;;;;7.20;99.90;;;;;;5013029;28;19940;-68
2023/02/03 04:02:11;;;;;;;;;;;7.30;99.90;;;;;;5013086;28;19918;-67
2023/02/03 04:04:37;;;;;;;;;;;7.30;99.90;;;;;;5012829;28;19961;-67
2023/02/03 04:07:03;;;;;;;;;;;7.30;99.90;;;;;;5012757;28;19913;-68
2023/02/03 04:09:28;;;;;;;;;;;7.30;99.90;;;;;;5014016;28;19925;-68
2023/02/03 04:12:04;;;;;;;;;;;7.30;99.90;;;;;;5014082;28;19913;-68
2023/02/03 04:14:34;;;;;;;;;;;7.20;99.90;;;;;;5016684;28;19910;-68
2023/02/03 04:17:00;;;;;;;;;;;7.20;99.90;;;;;;4996556;28;19916;-68
2023/02/03 04:19:26;;;;;;;;;;;7.10;99.90;;;;;;5013727;28;19910;-68
2023/02/03 04:21:51;;;;;;;;;;;7.10;99.90;;;;;;5014166;28;19917;-68
2023/02/03 04:24:17;;;;;;;;;;;7.00;99.90;;;;;;5013902;28;20357;-67
2023/02/03 04:26:42;;;;;;;;;;;6.90;99.90;;;;;;5013762;28;19914;-67
2023/02/03 04:29:08;;;;;;;;;;;6.90;99.90;;;;;;5013769;28;19915;-67
2023/02/03 04:31:33;;;;;;;;;;;6.90;99.90;;;;;;5015470;28;20374;-68
2023/02/03 04:33:59;;;;;;;;;;;6.80;99.90;;;;;;5013640;28;19921;-68
2023/02/03 04:36:24;;;;;;;;;;;6.80;99.90;;;;;;5013668;28;19984;-67
2023/02/03 04:38:50;;;;;;;;;;;6.80;99.90;;;;;;5014798;28;19917;-68
2023/02/03 04:41:15;;;;;;;;;;;6.80;99.90;;;;;;5012658;28;19909;-69
2023/02/03 04:43:41;;;;;;;;;;;6.90;99.90;;;;;;5013834;28;19917;-67
2023/02/03 04:46:06;;;;;;;;;;;6.90;99.90;;;;;;5013606;28;20056;-67
2023/02/03 04:48:31;;;;;;;;;;;7.00;99.90;;;;;;5013804;28;20294;-68
2023/02/03 04:51:02;;;;;;;;;;;7.00;99.90;;;;;;5013566;28;19920;-68
2023/02/03 04:53:27;;;;;;;;;;;7.00;99.90;;;;;;5014098;28;19909;-68
2023/02/03 04:55:53;;;;;;;;;;;7.00;99.90;;;;;;5014215;28;19917;-68
2023/02/03 04:58:18;;;;;;;;;;;6.90;99.90;;;;;;5013788;28;20003;-68
2023/02/03 05:00:44;;;;;;;;;;;6.90;99.90;;;;;;5015958;28;19914;-68
2023/02/03 05:03:09;;;;;;;;;;;7.00;99.90;;;;;;4999840;28;20284;-68
2023/02/03 05:05:35;;;;;;;;;;;7.00;99.90;;;;;;5016455;28;19965;-67
2023/02/03 05:08:00;;;;;;;;;;;7.00;99.90;;;;;;5014275;28;19913;-67
2023/02/03 05:10:25;;;;;;;;;;;7.00;99.90;;;;;;4994235;28;19924;-67
2023/02/03 05:12:51;;;;;;;;;;;7.00;99.90;;;;;;4993764;28;19997;-68
2023/02/03 05:15:16;;;;;;;;;;;7.00;99.90;;;;;;4992655;28;19914;-68
2023/02/03 05:17:42;;;;;;;;;;;7.10;99.90;;;;;;4993711;28;19917;-68
2023/02/03 05:20:07;;;;;;;;;;;7.20;99.90;;;;;;4993460;28;19909;-67
2023/02/03 05:22:34;;;;;;;;;;;7.20;99.90;;;;;;4993757;28;20493;-68
2023/02/03 05:25:00;;;;;;;;;;;7.30;99.90;;;;;;4993777;28;19917;-68
2023/02/03 05:27:26;;;;;;;;;;;7.30;99.90;;;;;;4994028;28;20470;-69
2023/02/03 05:29:51;;;;;;;;;;;7.30;99.90;;;;;;4977988;28;19921;-68
2023/02/03 05:32:17;;;;;;;;;;;7.30;99.90;;;;;;5011280;28;20337;-67
2023/02/03 05:34:42;;;;;;;;;;;7.30;99.90;;;;;;5013127;28;20333;-67
2023/02/03 05:37:08;;;;;;;;;;;7.30;99.90;;;;;;5012286;28;19925;-67
2023/02/03 05:39:36;;;;;;;;;;;7.30;99.90;;;;;;5001023;28;19952;-67
2023/02/03 05:42:03;;;;;;;;;;;7.40;99.90;;;;;;4998887;28;19916;-68
2023/02/03 05:44:28;;;;;;;;;;;7.30;99.90;;;;;;5005440;28;19957;-68
2023/02/03 05:46:55;;;;;;;;;;;7.30;99.90;;;;;;4999098;28;20315;-68
2023/02/03 05:49:22;;;;;;;;;;;7.40;99.90;;;;;;5015508;28;19968;-68
2023/02/03 05:51:47;;;;;;;;;;;7.40;99.90;;;;;;4998991;28;19910;-68
2023/02/03 05:54:13;;;;;;;;;;;7.50;99.90;;;;;;5016300;28;19921;-67
2023/02/03 05:56:38;;;;;;;;;;;7.30;99.90;;;;;;4995573;28;19914;-67
2023/02/03 05:59:04;;;;;;;;;;;7.30;99.90;;;;;;4997042;28;19997;-67
2023/02/03 06:01:30;;;;;;;;;;;7.30;99.90;;;;;;4992321;28;19913;-68
2023/02/03 06:03:55;;;;;;;;;;;7.30;99.90;;;;;;5016618;28;20012;-68
2023/02/03 06:06:21;;;;;;;;;;;7.50;99.90;;;;;;5016373;28;19910;-67
2023/02/03 06:08:46;;;;;;;;;;;7.40;99.90;;;;;;5015262;28;19910;-67
2023/02/03 06:11:11;;;;;;;;;;;7.50;99.90;;;;;;5015164;28;20267;-67
2023/02/03 06:13:37;;;;;;;;;;;7.50;99.90;;;;;;5016806;28;19909;-67
2023/02/03 06:16:03;;;;;;;;;;;7.50;99.90;;;;;;5016377;28;20347;-67
2023/02/03 06:18:28;;;;;;;;;;;7.50;99.90;;;;;;4998882;28;19957;-68
2023/02/03 06:20:54;;;;;;;;;;;7.50;99.90;;;;;;5015996;28;19910;-68
2023/02/03 06:23:19;;;;;;;;;;;7.40;99.90;;;;;;5016380;28;19910;-68
2023/02/03 06:25:47;;;;;;;;;;;7.40;99.90;;;;;;5016599;28;19944;-68
2023/02/03 06:28:12;;;;;;;;;;;7.40;99.90;;;;;;5018700;28;19917;-69
2023/02/03 06:30:38;;;;;;;;;;;7.40;99.90;;;;;;5018238;28;19909;-68
2023/02/03 06:33:03;;;;;;;;;;;7.30;99.90;;;;;;5017087;28;20283;-69
2023/02/03 06:35:29;;;;;;;;;;;7.10;99.90;;;;;;5016193;28;19976;-69
2023/02/03 06:37:54;;;;;;;;;;;7.00;99.90;;;;;;5017127;28;19909;-69
2023/02/03 06:40:20;;;;;;;;;;;7.00;99.90;;;;;;4998340;28;20001;-67
2023/02/03 06:42:46;;;;;;;;;;;6.90;99.90;;;;;;5000412;28;20279;-68
2023/02/03 06:45:12;;;;;;;;;;;7.00;99.90;;;;;;5016007;28;19994;-69
2023/02/03 06:47:41;;;;;;;;;;;6.90;99.90;;;;;;4990264;28;20008;-69
2023/02/03 06:50:07;;;;;;;;;;;7.00;99.90;;;;;;5002985;28;19914;-70
2023/02/03 06:52:32;;;;;;;;;;;7.00;99.90;;;;;;5014891;28;20325;-69
2023/02/03 06:54:58;;;;;;;;;;;6.90;99.90;;;;;;5012454;28;20008;-69
2023/02/03 06:57:23;;;;;;;;;;;7.00;99.90;;;;;;4995182;28;19910;-68
2023/02/03 06:59:49;;;;;;;;;;;7.00;99.90;;;;;;4978915;28;19917;-69
2023/02/03 07:02:14;;;;;;;;;;;7.00;99.90;;;;;;4995898;28;20371;-69
2023/02/03 07:04:40;;;;;;;;;;;7.00;99.90;;;;;;4995980;28;20281;-68
2023/02/03 07:07:05;;;;;;;;;;;6.90;99.90;;;;;;4996739;28;20410;-69
2023/02/03 07:09:31;;;;;;;;;;;7.00;99.90;;;;;;4996510;28;19913;-70
2023/02/03 07:11:56;;;;;;;;;;;6.90;99.90;;;;;;5003806;28;19910;-69
2023/02/03 07:14:22;;;;;;;;;;;6.90;99.90;;;;;;5014529;28;19957;-69
